sensor_id;sensor_type;location;lat;lon;timestamp;P1;durP1;ratioP1;P2;durP2;ratioP2
8435;SDS011;4255;48.730;9.156;2022-12-07T00:04:04;17.92;;;11.15;;
8435;SDS011;4255;48.730;9.156;2022-12-07T00:06:41;14.75;;;10.15;;
8435;SDS011;4255;48.730;9.156;2022-12-07T00:09:15;16.20;;;11.50;;
8435;SDS011;4255;48.730;9.156;2022-12-07T00:11:42;14.73;;;10.40;;
8435;SDS011;4255;48.730;9.156;2022-12-07T00:14:10;13.00;;;10.38;;
8435;SDS011;4255;48.730;9.156;2022-12-07T00:16:37;18.80;;;11.20;;
8435;SDS011;4255;48.730;9.156;2022-12-07T00:19:03;15.00;;;9.60;;
8435;SDS011;4255;48.730;9.156;2022-12-07T00:21:33;15.88;;;10.30;;
8435;SDS011;4255;48.730;9.156;2022-12-07T00:24:00;15.32;;;10.18;;
8435;SDS011;4255;48.730;9.156;2022-12-07T00:26:28;11.88;;;9.48;;
8435;SDS011;4255;48.730;9.156;2022-12-07T00:28:55;16.88;;;9.90;;
8435;SDS011;4255;48.730;9.156;2022-12-07T00:31:26;17.65;;;12.18;;
8435;SDS011;4255;48.730;9.156;2022-12-07T00:33:54;15.38;;;10.20;;
8435;SDS011;4255;48.730;9.156;2022-12-07T00:36:21;14.93;;;9.88;;
8435;SDS011;4255;48.730;9.156;2022-12-07T00:38:48;15.40;;;9.80;;
8435;SDS011;4255;48.730;9.156;2022-12-07T00:41:18;16.00;;;11.80;;
8435;SDS011;4255;48.730;9.156;2022-12-07T00:43:45;16.02;;;10.48;;
8435;SDS011;4255;48.730;9.156;2022-12-07T00:46:12;15.68;;;11.05;;
8435;SDS011;4255;48.730;9.156;2022-12-07T00:48:39;16.52;;;10.00;;
8435;SDS011;4255;48.730;9.156;2022-12-07T00:51:05;20.20;;;11.50;;
8435;SDS011;4255;48.730;9.156;2022-12-07T00:53:33;17.35;;;10.95;;
8435;SDS011;4255;48.730;9.156;2022-12-07T00:56:06;17.27;;;11.98;;
8435;SDS011;4255;48.730;9.156;2022-12-07T00:58:32;18.48;;;12.13;;
8435;SDS011;4255;48.730;9.156;2022-12-07T01:01:02;20.23;;;12.57;;
8435;SDS011;4255;48.730;9.156;2022-12-07T01:03:29;18.45;;;13.02;;
8435;SDS011;4255;48.730;9.156;2022-12-07T01:05:55;18.05;;;11.50;;
8435;SDS011;4255;48.730;9.156;2022-12-07T01:08:21;19.52;;;12.77;;
8435;SDS011;4255;48.730;9.156;2022-12-07T01:10:48;16.30;;;12.18;;
8435;SDS011;4255;48.730;9.156;2022-12-07T01:13:14;16.83;;;11.53;;
8435;SDS011;4255;48.730;9.156;2022-12-07T01:15:40;18.20;;;11.25;;
8435;SDS011;4255;48.730;9.156;2022-12-07T01:18:07;16.33;;;12.13;;
8435;SDS011;4255;48.730;9.156;2022-12-07T01:20:33;17.90;;;11.20;;
8435;SDS011;4255;48.730;9.156;2022-12-07T01:22:59;17.20;;;11.23;;
8435;SDS011;4255;48.730;9.156;2022-12-07T01:25:25;16.13;;;11.20;;
8435;SDS011;4255;48.730;9.156;2022-12-07T01:27:50;22.83;;;11.27;;
8435;SDS011;4255;48.730;9.156;2022-12-07T01:30:16;18.00;;;11.57;;
8435;SDS011;4255;48.730;9.156;2022-12-07T01:32:42;14.63;;;10.10;;
8435;SDS011;4255;48.730;9.156;2022-12-07T01:35:08;15.70;;;11.63;;
8435;SDS011;4255;48.730;9.156;2022-12-07T01:37:37;22.30;;;11.40;;
8435;SDS011;4255;48.730;9.156;2022-12-07T01:40:06;18.98;;;11.07;;
8435;SDS011;4255;48.730;9.156;2022-12-07T01:42:33;19.15;;;11.88;;
8435;SDS011;4255;48.730;9.156;2022-12-07T01:47:45;15.10;;;10.65;;
8435;SDS011;4255;48.730;9.156;2022-12-07T01:50:14;19.52;;;12.40;;
8435;SDS011;4255;48.730;9.156;2022-12-07T01:52:39;15.77;;;10.43;;
8435;SDS011;4255;48.730;9.156;2022-12-07T01:55:08;19.92;;;12.20;;
8435;SDS011;4255;48.730;9.156;2022-12-07T01:57:39;30.58;;;13.15;;
8435;SDS011;4255;48.730;9.156;2022-12-07T02:00:08;16.80;;;11.07;;
8435;SDS011;4255;48.730;9.156;2022-12-07T02:02:36;15.38;;;11.18;;
8435;SDS011;4255;48.730;9.156;2022-12-07T02:05:06;20.80;;;12.60;;
8435;SDS011;4255;48.730;9.156;2022-12-07T02:07:33;22.05;;;10.82;;
8435;SDS011;4255;48.730;9.156;2022-12-07T02:10:17;18.23;;;11.77;;
8435;SDS011;4255;48.730;9.156;2022-12-07T02:12:46;19.58;;;11.77;;
8435;SDS011;4255;48.730;9.156;2022-12-07T02:15:18;19.30;;;11.27;;
8435;SDS011;4255;48.730;9.156;2022-12-07T02:17:59;16.63;;;11.68;;
8435;SDS011;4255;48.730;9.156;2022-12-07T02:20:33;17.08;;;11.88;;
8435;SDS011;4255;48.730;9.156;2022-12-07T02:28:35;17.48;;;11.30;;
8435;SDS011;4255;48.730;9.156;2022-12-07T02:31:14;18.25;;;11.05;;
8435;SDS011;4255;48.730;9.156;2022-12-07T02:33:47;17.58;;;11.30;;
8435;SDS011;4255;48.730;9.156;2022-12-07T02:36:22;19.75;;;11.48;;
8435;SDS011;4255;48.730;9.156;2022-12-07T02:38:54;20.77;;;13.05;;
8435;SDS011;4255;48.730;9.156;2022-12-07T02:41:26;20.60;;;12.48;;
8435;SDS011;4255;48.730;9.156;2022-12-07T02:44:13;22.10;;;14.95;;
8435;SDS011;4255;48.730;9.156;2022-12-07T02:46:43;17.60;;;11.20;;
8435;SDS011;4255;48.730;9.156;2022-12-07T02:49:14;18.20;;;12.43;;
8435;SDS011;4255;48.730;9.156;2022-12-07T02:51:41;15.98;;;11.27;;
8435;SDS011;4255;48.730;9.156;2022-12-07T02:54:15;20.50;;;14.02;;
8435;SDS011;4255;48.730;9.156;2022-12-07T02:59:24;16.43;;;10.90;;
8435;SDS011;4255;48.730;9.156;2022-12-07T03:12:44;16.27;;;11.40;;
8435;SDS011;4255;48.730;9.156;2022-12-07T03:15:34;20.63;;;13.80;;
8435;SDS011;4255;48.730;9.156;2022-12-07T03:18:04;18.75;;;11.75;;
8435;SDS011;4255;48.730;9.156;2022-12-07T03:20:30;22.95;;;14.20;;
8435;SDS011;4255;48.730;9.156;2022-12-07T03:22:59;21.50;;;14.48;;
8435;SDS011;4255;48.730;9.156;2022-12-07T03:25:25;16.77;;;11.67;;
8435;SDS011;4255;48.730;9.156;2022-12-07T03:27:58;14.77;;;11.27;;
8435;SDS011;4255;48.730;9.156;2022-12-07T03:30:39;16.08;;;10.52;;
8435;SDS011;4255;48.730;9.156;2022-12-07T03:33:12;18.58;;;12.18;;
8435;SDS011;4255;48.730;9.156;2022-12-07T03:35:47;18.95;;;12.38;;
8435;SDS011;4255;48.730;9.156;2022-12-07T03:38:31;17.95;;;11.25;;
8435;SDS011;4255;48.730;9.156;2022-12-07T03:41:06;13.25;;;10.48;;
8435;SDS011;4255;48.730;9.156;2022-12-07T03:43:35;18.63;;;11.32;;
8435;SDS011;4255;48.730;9.156;2022-12-07T03:46:06;17.88;;;12.60;;
8435;SDS011;4255;48.730;9.156;2022-12-07T03:49:11;24.95;;;12.40;;
8435;SDS011;4255;48.730;9.156;2022-12-07T03:51:54;15.85;;;11.35;;
8435;SDS011;4255;48.730;9.156;2022-12-07T03:54:34;16.63;;;9.77;;
8435;SDS011;4255;48.730;9.156;2022-12-07T03:57:04;20.20;;;10.60;;
8435;SDS011;4255;48.730;9.156;2022-12-07T03:59:31;19.52;;;12.88;;
8435;SDS011;4255;48.730;9.156;2022-12-07T04:02:02;15.70;;;10.23;;
8435;SDS011;4255;48.730;9.156;2022-12-07T04:04:30;17.40;;;11.45;;
8435;SDS011;4255;48.730;9.156;2022-12-07T04:06:56;15.37;;;10.17;;
8435;SDS011;4255;48.730;9.156;2022-12-07T04:09:22;16.10;;;11.30;;
8435;SDS011;4255;48.730;9.156;2022-12-07T04:11:48;16.30;;;10.73;;
8435;SDS011;4255;48.730;9.156;2022-12-07T04:14:13;17.30;;;10.63;;
8435;SDS011;4255;48.730;9.156;2022-12-07T04:16:46;15.85;;;9.93;;
8435;SDS011;4255;48.730;9.156;2022-12-07T04:19:17;18.10;;;10.85;;
8435;SDS011;4255;48.730;9.156;2022-12-07T04:21:44;14.25;;;9.70;;
8435;SDS011;4255;48.730;9.156;2022-12-07T04:24:11;11.13;;;9.50;;
8435;SDS011;4255;48.730;9.156;2022-12-07T04:26:38;14.65;;;9.80;;
8435;SDS011;4255;48.730;9.156;2022-12-07T04:29:04;15.80;;;10.37;;
8435;SDS011;4255;48.730;9.156;2022-12-07T04:31:29;15.43;;;10.40;;
8435;SDS011;4255;48.730;9.156;2022-12-07T04:33:55;13.20;;;10.10;;
8435;SDS011;4255;48.730;9.156;2022-12-07T04:36:21;17.20;;;10.87;;
8435;SDS011;4255;48.730;9.156;2022-12-07T04:38:46;14.90;;;8.90;;
8435;SDS011;4255;48.730;9.156;2022-12-07T04:41:12;12.77;;;9.47;;
8435;SDS011;4255;48.730;9.156;2022-12-07T04:43:38;15.70;;;9.20;;
8435;SDS011;4255;48.730;9.156;2022-12-07T04:46:04;11.67;;;8.20;;
8435;SDS011;4255;48.730;9.156;2022-12-07T04:48:29;10.57;;;8.60;;
8435;SDS011;4255;48.730;9.156;2022-12-07T04:50:55;12.97;;;8.10;;
8435;SDS011;4255;48.730;9.156;2022-12-07T04:53:21;9.10;;;7.57;;
8435;SDS011;4255;48.730;9.156;2022-12-07T04:55:46;12.93;;;8.30;;
8435;SDS011;4255;48.730;9.156;2022-12-07T04:58:12;11.00;;;7.80;;
8435;SDS011;4255;48.730;9.156;2022-12-07T05:00:38;10.30;;;8.43;;
8435;SDS011;4255;48.730;9.156;2022-12-07T05:03:04;11.60;;;8.10;;
8435;SDS011;4255;48.730;9.156;2022-12-07T05:05:30;14.43;;;8.40;;
8435;SDS011;4255;48.730;9.156;2022-12-07T05:07:56;12.43;;;8.40;;
8435;SDS011;4255;48.730;9.156;2022-12-07T05:10:21;11.37;;;7.90;;
8435;SDS011;4255;48.730;9.156;2022-12-07T05:12:47;10.77;;;7.97;;
8435;SDS011;4255;48.730;9.156;2022-12-07T05:15:13;7.87;;;7.07;;
8435;SDS011;4255;48.730;9.156;2022-12-07T05:17:39;9.20;;;7.03;;
8435;SDS011;4255;48.730;9.156;2022-12-07T05:20:05;7.10;;;5.77;;
8435;SDS011;4255;48.730;9.156;2022-12-07T05:22:31;8.65;;;6.55;;
8435;SDS011;4255;48.730;9.156;2022-12-07T05:24:57;6.70;;;5.83;;
8435;SDS011;4255;48.730;9.156;2022-12-07T05:27:22;7.37;;;5.70;;
8435;SDS011;4255;48.730;9.156;2022-12-07T05:29:49;8.70;;;6.60;;
8435;SDS011;4255;48.730;9.156;2022-12-07T05:32:15;6.40;;;5.40;;
8435;SDS011;4255;48.730;9.156;2022-12-07T05:34:41;8.77;;;6.53;;
8435;SDS011;4255;48.730;9.156;2022-12-07T05:37:06;9.30;;;6.60;;
8435;SDS011;4255;48.730;9.156;2022-12-07T05:39:32;11.00;;;7.50;;
8435;SDS011;4255;48.730;9.156;2022-12-07T05:41:57;8.97;;;6.50;;
8435;SDS011;4255;48.730;9.156;2022-12-07T05:44:39;7.65;;;6.88;;
8435;SDS011;4255;48.730;9.156;2022-12-07T05:47:06;10.38;;;7.85;;
8435;SDS011;4255;48.730;9.156;2022-12-07T05:49:31;9.10;;;7.40;;
8435;SDS011;4255;48.730;9.156;2022-12-07T05:51:57;12.50;;;7.03;;
8435;SDS011;4255;48.730;9.156;2022-12-07T05:54:23;8.93;;;7.60;;
8435;SDS011;4255;48.730;9.156;2022-12-07T05:56:49;9.40;;;7.57;;
8435;SDS011;4255;48.730;9.156;2022-12-07T05:59:15;10.50;;;7.30;;
8435;SDS011;4255;48.730;9.156;2022-12-07T06:04:23;6.68;;;6.05;;
8435;SDS011;4255;48.730;9.156;2022-12-07T06:06:50;10.18;;;7.65;;
8435;SDS011;4255;48.730;9.156;2022-12-07T06:09:17;9.63;;;7.35;;
8435;SDS011;4255;48.730;9.156;2022-12-07T06:11:43;7.78;;;6.45;;
8435;SDS011;4255;48.730;9.156;2022-12-07T06:14:28;9.60;;;7.15;;
8435;SDS011;4255;48.730;9.156;2022-12-07T06:16:54;9.50;;;7.47;;
8435;SDS011;4255;48.730;9.156;2022-12-07T06:19:19;10.87;;;8.87;;
8435;SDS011;4255;48.730;9.156;2022-12-07T06:21:45;10.10;;;8.00;;
8435;SDS011;4255;48.730;9.156;2022-12-07T06:24:11;11.93;;;8.70;;
8435;SDS011;4255;48.730;9.156;2022-12-07T06:26:37;14.27;;;11.48;;
8435;SDS011;4255;48.730;9.156;2022-12-07T06:29:03;10.23;;;7.90;;
8435;SDS011;4255;48.730;9.156;2022-12-07T06:31:29;14.10;;;8.50;;
8435;SDS011;4255;48.730;9.156;2022-12-07T06:34:01;11.80;;;7.87;;
8435;SDS011;4255;48.730;9.156;2022-12-07T06:36:28;13.93;;;9.60;;
8435;SDS011;4255;48.730;9.156;2022-12-07T06:38:55;10.40;;;7.55;;
8435;SDS011;4255;48.730;9.156;2022-12-07T06:41:21;14.07;;;9.05;;
8435;SDS011;4255;48.730;9.156;2022-12-07T06:43:47;12.18;;;8.90;;
8435;SDS011;4255;48.730;9.156;2022-12-07T06:46:13;12.60;;;9.10;;
8435;SDS011;4255;48.730;9.156;2022-12-07T06:48:39;16.13;;;13.10;;
8435;SDS011;4255;48.730;9.156;2022-12-07T06:51:05;13.10;;;8.80;;
8435;SDS011;4255;48.730;9.156;2022-12-07T06:53:31;14.33;;;9.90;;
8435;SDS011;4255;48.730;9.156;2022-12-07T06:55:57;14.83;;;10.30;;
8435;SDS011;4255;48.730;9.156;2022-12-07T06:58:22;15.00;;;8.30;;
8435;SDS011;4255;48.730;9.156;2022-12-07T07:00:48;12.53;;;9.50;;
8435;SDS011;4255;48.730;9.156;2022-12-07T07:03:15;13.45;;;9.77;;
8435;SDS011;4255;48.730;9.156;2022-12-07T07:05:41;13.02;;;9.57;;
8435;SDS011;4255;48.730;9.156;2022-12-07T07:08:07;15.30;;;10.77;;
8435;SDS011;4255;48.730;9.156;2022-12-07T07:10:33;12.40;;;8.97;;
8435;SDS011;4255;48.730;9.156;2022-12-07T07:12:58;12.10;;;9.40;;
8435;SDS011;4255;48.730;9.156;2022-12-07T07:15:24;14.97;;;9.10;;
8435;SDS011;4255;48.730;9.156;2022-12-07T07:17:50;9.57;;;8.00;;
8435;SDS011;4255;48.730;9.156;2022-12-07T07:20:15;13.87;;;9.13;;
8435;SDS011;4255;48.730;9.156;2022-12-07T07:22:41;12.00;;;9.13;;
8435;SDS011;4255;48.730;9.156;2022-12-07T07:25:07;14.67;;;9.40;;
8435;SDS011;4255;48.730;9.156;2022-12-07T07:27:32;14.67;;;10.00;;
8435;SDS011;4255;48.730;9.156;2022-12-07T07:29:58;15.03;;;10.50;;
8435;SDS011;4255;48.730;9.156;2022-12-07T07:32:24;14.57;;;9.67;;
8435;SDS011;4255;48.730;9.156;2022-12-07T07:34:49;13.33;;;9.90;;
8435;SDS011;4255;48.730;9.156;2022-12-07T07:37:15;13.10;;;8.80;;
8435;SDS011;4255;48.730;9.156;2022-12-07T07:39:40;14.10;;;10.10;;
8435;SDS011;4255;48.730;9.156;2022-12-07T07:42:06;15.70;;;10.30;;
8435;SDS011;4255;48.730;9.156;2022-12-07T07:44:32;16.05;;;10.95;;
8435;SDS011;4255;48.730;9.156;2022-12-07T07:46:59;15.40;;;11.27;;
8435;SDS011;4255;48.730;9.156;2022-12-07T07:49:25;15.05;;;9.48;;
8435;SDS011;4255;48.730;9.156;2022-12-07T07:51:50;21.63;;;10.87;;
8435;SDS011;4255;48.730;9.156;2022-12-07T07:54:16;15.00;;;10.13;;
8435;SDS011;4255;48.730;9.156;2022-12-07T07:56:42;21.97;;;11.20;;
8435;SDS011;4255;48.730;9.156;2022-12-07T07:59:07;16.60;;;10.17;;
8435;SDS011;4255;48.730;9.156;2022-12-07T08:01:33;21.20;;;11.33;;
8435;SDS011;4255;48.730;9.156;2022-12-07T08:03:58;16.10;;;9.23;;
8435;SDS011;4255;48.730;9.156;2022-12-07T08:06:24;13.73;;;10.57;;
8435;SDS011;4255;48.730;9.156;2022-12-07T08:08:50;18.10;;;11.70;;
8435;SDS011;4255;48.730;9.156;2022-12-07T08:11:15;14.20;;;10.27;;
8435;SDS011;4255;48.730;9.156;2022-12-07T08:13:41;16.57;;;10.77;;
8435;SDS011;4255;48.730;9.156;2022-12-07T08:16:07;17.53;;;11.40;;
8435;SDS011;4255;48.730;9.156;2022-12-07T08:18:35;13.40;;;11.15;;
8435;SDS011;4255;48.730;9.156;2022-12-07T08:21:02;18.23;;;11.32;;
8435;SDS011;4255;48.730;9.156;2022-12-07T08:23:28;21.40;;;11.05;;
8435;SDS011;4255;48.730;9.156;2022-12-07T08:25:54;19.00;;;11.10;;
8435;SDS011;4255;48.730;9.156;2022-12-07T08:28:20;19.10;;;10.40;;
8435;SDS011;4255;48.730;9.156;2022-12-07T08:30:46;16.93;;;9.47;;
8435;SDS011;4255;48.730;9.156;2022-12-07T08:33:11;16.10;;;11.27;;
8435;SDS011;4255;48.730;9.156;2022-12-07T08:35:37;13.07;;;8.80;;
8435;SDS011;4255;48.730;9.156;2022-12-07T08:38:03;15.15;;;11.65;;
8435;SDS011;4255;48.730;9.156;2022-12-07T08:40:29;14.57;;;8.87;;
8435;SDS011;4255;48.730;9.156;2022-12-07T08:42:55;17.60;;;10.23;;
8435;SDS011;4255;48.730;9.156;2022-12-07T08:45:21;13.37;;;9.37;;
8435;SDS011;4255;48.730;9.156;2022-12-07T08:50:18;16.10;;;9.60;;
8435;SDS011;4255;48.730;9.156;2022-12-07T08:52:43;15.10;;;9.37;;
8435;SDS011;4255;48.730;9.156;2022-12-07T08:55:13;14.65;;;10.07;;
8435;SDS011;4255;48.730;9.156;2022-12-07T08:57:38;14.50;;;9.70;;
8435;SDS011;4255;48.730;9.156;2022-12-07T09:00:05;11.05;;;8.00;;
8435;SDS011;4255;48.730;9.156;2022-12-07T09:02:32;12.63;;;9.57;;
8435;SDS011;4255;48.730;9.156;2022-12-07T09:04:58;12.90;;;8.00;;
8435;SDS011;4255;48.730;9.156;2022-12-07T09:07:23;10.10;;;7.87;;
8435;SDS011;4255;48.730;9.156;2022-12-07T09:09:50;11.85;;;8.50;;
8435;SDS011;4255;48.730;9.156;2022-12-07T09:12:15;11.40;;;9.40;;
8435;SDS011;4255;48.730;9.156;2022-12-07T09:14:41;16.27;;;8.20;;
8435;SDS011;4255;48.730;9.156;2022-12-07T09:17:10;9.00;;;7.63;;
8435;SDS011;4255;48.730;9.156;2022-12-07T09:19:37;11.27;;;8.40;;
8435;SDS011;4255;48.730;9.156;2022-12-07T09:22:03;20.65;;;9.32;;
8435;SDS011;4255;48.730;9.156;2022-12-07T09:24:30;11.88;;;8.88;;
8435;SDS011;4255;48.730;9.156;2022-12-07T09:26:56;15.45;;;8.52;;
8435;SDS011;4255;48.730;9.156;2022-12-07T09:29:22;14.13;;;7.38;;
8435;SDS011;4255;48.730;9.156;2022-12-07T09:31:48;14.60;;;7.63;;
8435;SDS011;4255;48.730;9.156;2022-12-07T09:34:14;11.17;;;7.83;;
8435;SDS011;4255;48.730;9.156;2022-12-07T09:36:39;10.00;;;7.30;;
8435;SDS011;4255;48.730;9.156;2022-12-07T09:39:05;13.87;;;7.43;;
8435;SDS011;4255;48.730;9.156;2022-12-07T09:41:31;11.90;;;7.47;;
8435;SDS011;4255;48.730;9.156;2022-12-07T09:44:04;9.75;;;6.82;;
8435;SDS011;4255;48.730;9.156;2022-12-07T09:46:43;11.82;;;6.80;;
8435;SDS011;4255;48.730;9.156;2022-12-07T09:49:14;13.30;;;6.80;;
8435;SDS011;4255;48.730;9.156;2022-12-07T09:51:43;10.88;;;7.82;;
8435;SDS011;4255;48.730;9.156;2022-12-07T09:54:12;10.50;;;6.37;;
8435;SDS011;4255;48.730;9.156;2022-12-07T09:56:39;20.05;;;8.73;;
8435;SDS011;4255;48.730;9.156;2022-12-07T09:59:04;14.87;;;8.40;;
8435;SDS011;4255;48.730;9.156;2022-12-07T10:01:31;14.27;;;8.53;;
8435;SDS011;4255;48.730;9.156;2022-12-07T10:04:05;12.23;;;7.47;;
8435;SDS011;4255;48.730;9.156;2022-12-07T10:06:45;13.10;;;7.30;;
8435;SDS011;4255;48.730;9.156;2022-12-07T10:09:13;9.15;;;6.03;;
8435;SDS011;4255;48.730;9.156;2022-12-07T10:14:34;11.05;;;7.18;;
8435;SDS011;4255;48.730;9.156;2022-12-07T10:17:01;8.48;;;6.10;;
8435;SDS011;4255;48.730;9.156;2022-12-07T10:22:02;8.52;;;6.15;;
8435;SDS011;4255;48.730;9.156;2022-12-07T10:24:30;9.38;;;5.95;;
8435;SDS011;4255;48.730;9.156;2022-12-07T10:26:56;10.60;;;5.73;;
8435;SDS011;4255;48.730;9.156;2022-12-07T10:32:00;7.00;;;5.55;;
8435;SDS011;4255;48.730;9.156;2022-12-07T10:34:28;5.78;;;5.10;;
8435;SDS011;4255;48.730;9.156;2022-12-07T10:39:47;9.63;;;5.10;;
8435;SDS011;4255;48.730;9.156;2022-12-07T10:44:47;5.70;;;4.55;;
8435;SDS011;4255;48.730;9.156;2022-12-07T10:47:19;7.88;;;5.50;;
8435;SDS011;4255;48.730;9.156;2022-12-07T10:52:39;7.10;;;4.50;;
8435;SDS011;4255;48.730;9.156;2022-12-07T10:55:27;7.28;;;5.53;;
8435;SDS011;4255;48.730;9.156;2022-12-07T10:58:30;5.35;;;4.45;;
8435;SDS011;4255;48.730;9.156;2022-12-07T11:01:32;7.22;;;4.82;;
8435;SDS011;4255;48.730;9.156;2022-12-07T11:06:53;5.18;;;4.68;;
8435;SDS011;4255;48.730;9.156;2022-12-07T11:18:51;5.32;;;4.57;;
8435;SDS011;4255;48.730;9.156;2022-12-07T11:21:24;6.85;;;4.60;;
8435;SDS011;4255;48.730;9.156;2022-12-07T11:34:42;7.40;;;4.75;;
8435;SDS011;4255;48.730;9.156;2022-12-07T11:37:25;18.30;;;7.05;;
8435;SDS011;4255;48.730;9.156;2022-12-07T11:39:59;8.90;;;5.38;;
8435;SDS011;4255;48.730;9.156;2022-12-07T11:42:29;8.10;;;4.60;;
8435;SDS011;4255;48.730;9.156;2022-12-07T11:45:03;6.10;;;5.00;;
8435;SDS011;4255;48.730;9.156;2022-12-07T11:47:48;6.65;;;4.78;;
8435;SDS011;4255;48.730;9.156;2022-12-07T11:55:42;13.60;;;8.53;;
8435;SDS011;4255;48.730;9.156;2022-12-07T12:01:16;9.45;;;5.32;;
8435;SDS011;4255;48.730;9.156;2022-12-07T12:03:46;7.30;;;5.53;;
8435;SDS011;4255;48.730;9.156;2022-12-07T12:06:14;9.55;;;6.38;;
8435;SDS011;4255;48.730;9.156;2022-12-07T12:08:45;10.43;;;6.00;;
8435;SDS011;4255;48.730;9.156;2022-12-07T12:14:33;6.95;;;5.00;;
8435;SDS011;4255;48.730;9.156;2022-12-07T12:19:41;6.70;;;4.60;;
8435;SDS011;4255;48.730;9.156;2022-12-07T12:22:12;7.15;;;4.07;;
8435;SDS011;4255;48.730;9.156;2022-12-07T12:24:44;4.38;;;3.95;;
8435;SDS011;4255;48.730;9.156;2022-12-07T12:33:02;4.47;;;3.67;;
8435;SDS011;4255;48.730;9.156;2022-12-07T12:40:45;6.25;;;3.75;;
8435;SDS011;4255;48.730;9.156;2022-12-07T12:54:38;5.60;;;5.10;;
8435;SDS011;4255;48.730;9.156;2022-12-07T12:57:22;6.47;;;4.57;;
8435;SDS011;4255;48.730;9.156;2022-12-07T13:04:52;7.63;;;4.90;;
8435;SDS011;4255;48.730;9.156;2022-12-07T13:18:39;7.00;;;5.18;;
8435;SDS011;4255;48.730;9.156;2022-12-07T13:23:38;5.63;;;5.03;;
8435;SDS011;4255;48.730;9.156;2022-12-07T13:26:05;4.70;;;4.28;;
8435;SDS011;4255;48.730;9.156;2022-12-07T13:28:39;8.52;;;5.32;;
8435;SDS011;4255;48.730;9.156;2022-12-07T13:33:46;6.03;;;5.18;;
8435;SDS011;4255;48.730;9.156;2022-12-07T13:36:18;5.85;;;4.30;;
8435;SDS011;4255;48.730;9.156;2022-12-07T13:38:51;4.60;;;3.95;;
8435;SDS011;4255;48.730;9.156;2022-12-07T13:41:22;4.70;;;4.30;;
8435;SDS011;4255;48.730;9.156;2022-12-07T13:43:58;4.82;;;4.43;;
8435;SDS011;4255;48.730;9.156;2022-12-07T13:46:30;5.13;;;4.63;;
8435;SDS011;4255;48.730;9.156;2022-12-07T13:49:17;4.90;;;4.40;;
8435;SDS011;4255;48.730;9.156;2022-12-07T13:52:17;5.88;;;4.78;;
8435;SDS011;4255;48.730;9.156;2022-12-07T13:54:49;5.70;;;4.57;;
8435;SDS011;4255;48.730;9.156;2022-12-07T13:57:25;5.03;;;4.22;;
8435;SDS011;4255;48.730;9.156;2022-12-07T13:59:53;8.52;;;6.40;;
8435;SDS011;4255;48.730;9.156;2022-12-07T14:04:50;4.20;;;3.80;;
8435;SDS011;4255;48.730;9.156;2022-12-07T14:07:26;4.40;;;4.00;;
8435;SDS011;4255;48.730;9.156;2022-12-07T14:09:54;7.95;;;4.25;;
8435;SDS011;4255;48.730;9.156;2022-12-07T14:12:21;5.43;;;4.10;;
8435;SDS011;4255;48.730;9.156;2022-12-07T14:14:47;4.70;;;4.22;;
8435;SDS011;4255;48.730;9.156;2022-12-07T14:17:20;4.22;;;3.80;;
8435;SDS011;4255;48.730;9.156;2022-12-07T14:19:57;4.25;;;3.70;;
8435;SDS011;4255;48.730;9.156;2022-12-07T14:27:38;4.55;;;4.15;;
8435;SDS011;4255;48.730;9.156;2022-12-07T14:30:04;6.77;;;5.27;;
8435;SDS011;4255;48.730;9.156;2022-12-07T14:32:31;7.93;;;3.90;;
8435;SDS011;4255;48.730;9.156;2022-12-07T14:35:07;4.50;;;4.10;;
8435;SDS011;4255;48.730;9.156;2022-12-07T14:37:35;4.68;;;4.13;;
8435;SDS011;4255;48.730;9.156;2022-12-07T14:40:02;4.57;;;4.15;;
8435;SDS011;4255;48.730;9.156;2022-12-07T14:42:29;5.00;;;4.28;;
8435;SDS011;4255;48.730;9.156;2022-12-07T14:44:56;5.63;;;4.38;;
8435;SDS011;4255;48.730;9.156;2022-12-07T14:47:23;7.57;;;6.57;;
8435;SDS011;4255;48.730;9.156;2022-12-07T14:49:49;7.45;;;5.72;;
8435;SDS011;4255;48.730;9.156;2022-12-07T14:52:19;6.60;;;5.67;;
8435;SDS011;4255;48.730;9.156;2022-12-07T14:54:48;7.40;;;5.05;;
8435;SDS011;4255;48.730;9.156;2022-12-07T14:57:13;5.87;;;5.27;;
8435;SDS011;4255;48.730;9.156;2022-12-07T14:59:39;7.10;;;6.40;;
8435;SDS011;4255;48.730;9.156;2022-12-07T15:02:05;6.63;;;4.80;;
8435;SDS011;4255;48.730;9.156;2022-12-07T15:04:31;7.40;;;5.80;;
8435;SDS011;4255;48.730;9.156;2022-12-07T15:06:57;7.13;;;6.43;;
8435;SDS011;4255;48.730;9.156;2022-12-07T15:09:25;7.38;;;6.05;;
8435;SDS011;4255;48.730;9.156;2022-12-07T15:11:50;9.23;;;5.43;;
8435;SDS011;4255;48.730;9.156;2022-12-07T15:14:16;6.80;;;5.40;;
8435;SDS011;4255;48.730;9.156;2022-12-07T15:16:42;7.50;;;6.77;;
8435;SDS011;4255;48.730;9.156;2022-12-07T15:19:12;6.97;;;6.00;;
8435;SDS011;4255;48.730;9.156;2022-12-07T15:21:48;6.45;;;5.85;;
8435;SDS011;4255;48.730;9.156;2022-12-07T15:24:13;10.18;;;6.45;;
8435;SDS011;4255;48.730;9.156;2022-12-07T15:26:40;8.67;;;6.50;;
8435;SDS011;4255;48.730;9.156;2022-12-07T15:29:06;8.00;;;6.20;;
8435;SDS011;4255;48.730;9.156;2022-12-07T15:31:32;6.40;;;5.45;;
8435;SDS011;4255;48.730;9.156;2022-12-07T15:33:58;8.13;;;7.30;;
8435;SDS011;4255;48.730;9.156;2022-12-07T15:36:25;12.60;;;7.60;;
8435;SDS011;4255;48.730;9.156;2022-12-07T15:38:52;8.82;;;6.07;;
8435;SDS011;4255;48.730;9.156;2022-12-07T15:41:19;8.23;;;5.85;;
8435;SDS011;4255;48.730;9.156;2022-12-07T15:43:45;8.57;;;5.80;;
8435;SDS011;4255;48.730;9.156;2022-12-07T15:46:33;9.48;;;5.63;;
8435;SDS011;4255;48.730;9.156;2022-12-07T15:49:02;8.52;;;6.38;;
8435;SDS011;4255;48.730;9.156;2022-12-07T15:51:28;8.95;;;7.13;;
8435;SDS011;4255;48.730;9.156;2022-12-07T15:53:54;7.45;;;5.70;;
8435;SDS011;4255;48.730;9.156;2022-12-07T15:56:22;7.15;;;5.70;;
8435;SDS011;4255;48.730;9.156;2022-12-07T15:58:47;9.17;;;6.10;;
8435;SDS011;4255;48.730;9.156;2022-12-07T16:01:14;11.33;;;6.60;;
8435;SDS011;4255;48.730;9.156;2022-12-07T16:03:41;9.85;;;7.25;;
8435;SDS011;4255;48.730;9.156;2022-12-07T16:06:07;8.75;;;6.63;;
8435;SDS011;4255;48.730;9.156;2022-12-07T16:08:33;11.83;;;8.63;;
8435;SDS011;4255;48.730;9.156;2022-12-07T16:10:58;9.70;;;7.03;;
8435;SDS011;4255;48.730;9.156;2022-12-07T16:13:24;12.00;;;8.43;;
8435;SDS011;4255;48.730;9.156;2022-12-07T16:15:50;14.20;;;9.50;;
8435;SDS011;4255;48.730;9.156;2022-12-07T16:18:15;10.97;;;8.17;;
8435;SDS011;4255;48.730;9.156;2022-12-07T16:20:41;12.63;;;7.97;;
8435;SDS011;4255;48.730;9.156;2022-12-07T16:23:06;15.63;;;9.40;;
8435;SDS011;4255;48.730;9.156;2022-12-07T16:25:33;13.95;;;8.93;;
8435;SDS011;4255;48.730;9.156;2022-12-07T16:27:59;12.10;;;8.20;;
8435;SDS011;4255;48.730;9.156;2022-12-07T16:30:24;11.60;;;8.20;;
8435;SDS011;4255;48.730;9.156;2022-12-07T16:32:50;12.30;;;9.40;;
8435;SDS011;4255;48.730;9.156;2022-12-07T16:35:16;18.52;;;10.02;;
8435;SDS011;4255;48.730;9.156;2022-12-07T16:37:42;11.05;;;8.15;;
8435;SDS011;4255;48.730;9.156;2022-12-07T16:40:08;12.70;;;9.10;;
8435;SDS011;4255;48.730;9.156;2022-12-07T16:42:34;15.25;;;10.45;;
8435;SDS011;4255;48.730;9.156;2022-12-07T16:45:00;14.10;;;9.63;;
8435;SDS011;4255;48.730;9.156;2022-12-07T16:47:27;14.70;;;10.35;;
8435;SDS011;4255;48.730;9.156;2022-12-07T16:49:53;16.20;;;10.30;;
8435;SDS011;4255;48.730;9.156;2022-12-07T16:52:19;14.63;;;10.63;;
8435;SDS011;4255;48.730;9.156;2022-12-07T16:54:45;17.90;;;10.63;;
8435;SDS011;4255;48.730;9.156;2022-12-07T16:57:12;14.00;;;10.48;;
8435;SDS011;4255;48.730;9.156;2022-12-07T16:59:37;16.17;;;9.87;;
8435;SDS011;4255;48.730;9.156;2022-12-07T17:02:04;12.23;;;8.70;;
8435;SDS011;4255;48.730;9.156;2022-12-07T17:04:31;15.00;;;11.25;;
8435;SDS011;4255;48.730;9.156;2022-12-07T17:06:58;20.40;;;10.55;;
8435;SDS011;4255;48.730;9.156;2022-12-07T17:09:23;15.07;;;10.40;;
8435;SDS011;4255;48.730;9.156;2022-12-07T17:11:49;14.67;;;10.80;;
8435;SDS011;4255;48.730;9.156;2022-12-07T17:14:15;14.00;;;10.07;;
8435;SDS011;4255;48.730;9.156;2022-12-07T17:16:59;16.63;;;10.18;;
8435;SDS011;4255;48.730;9.156;2022-12-07T17:19:25;14.93;;;9.43;;
8435;SDS011;4255;48.730;9.156;2022-12-07T17:21:51;16.87;;;10.37;;
8435;SDS011;4255;48.730;9.156;2022-12-07T17:24:16;19.27;;;12.67;;